Time;durP1;ratioP1;P1;durP2;ratioP2;P2;SDS_P1;SDS_P2;PMS_P1;PMS_P2;Temp;Humidity;BMP_temperature;BMP_pressure;BME280_temperature;BME280_humidity;BME280_pressure;Samples;Min_cycle;Max_cycle;Signal;HPM_P1;HPM_P2
2022/07/11 00:00:59;;;;;;;0.10;0.10;;;16.70;82.60;;;;;;4941396;28;20527;-91
2022/07/11 00:03:24;;;;;;;0.10;0.10;;;16.60;83.60;;;;;;4972743;28;20125;-91
2022/07/11 00:05:50;;;;;;;0.20;0.20;;;16.50;83.50;;;;;;4940839;28;20089;-91
2022/07/11 00:08:24;;;;;;;0.10;0.10;;;16.50;83.90;;;;;;4973978;28;20081;-92
2022/07/11 00:10:53;;;;;;;0.10;0.10;;;16.60;84.30;;;;;;4940620;28;20499;-91
2022/07/11 00:13:19;;;;;;;0.10;0.10;;;16.70;84.20;;;;;;4941034;28;20078;-91
2022/07/11 00:15:47;;;;;;;0.10;0.10;;;16.70;84.30;;;;;;4941224;28;20488;-91
2022/07/11 00:18:13;;;;;;;0.10;0.10;;;16.50;85.80;;;;;;4940691;28;20038;-91
2022/07/11 00:20:41;;;;;;;0.20;0.20;;;16.50;85.90;;;;;;4940575;28;20396;-92
2022/07/11 00:23:10;;;;;;;0.10;0.10;;;16.50;85.00;;;;;;4972576;28;20492;-91
2022/07/11 00:25:38;;;;;;;0.10;0.10;;;16.50;84.80;;;;;;4940704;28;20023;-91
2022/07/11 00:28:04;;;;;;;0.10;0.10;;;16.60;85.10;;;;;;4940934;28;20042;-91
2022/07/11 00:30:30;;;;;;;0.17;0.17;;;16.60;85.20;;;;;;4940937;28;20024;-91
2022/07/11 00:33:01;;;;;;;0.10;0.10;;;16.60;85.40;;;;;;4941658;28;20031;-91
2022/07/11 00:35:29;;;;;;;0.10;0.10;;;16.60;85.40;;;;;;4941113;28;20077;-91
2022/07/11 00:37:55;;;;;;;0.15;0.15;;;16.50;86.30;;;;;;4940783;28;20571;-91
2022/07/11 00:40:21;;;;;;;0.20;0.20;;;16.50;85.60;;;;;;4943801;28;20038;-91
2022/07/11 00:42:47;;;;;;;0.10;0.10;;;16.40;86.80;;;;;;4944463;28;20034;-91
2022/07/11 00:45:15;;;;;;;0.10;0.10;;;16.60;86.30;;;;;;4944406;28;20019;-91
2022/07/11 00:47:46;;;;;;;0.10;0.10;;;16.60;86.60;;;;;;4944552;28;20023;-91
2022/07/11 00:50:14;;;;;;;0.10;0.10;;;16.70;86.40;;;;;;4944741;28;20027;-91
2022/07/11 00:52:40;;;;;;;0.10;0.10;;;16.60;85.20;;;;;;4944492;28;20057;-91
2022/07/11 00:55:07;;;;;;;2.08;0.90;;;16.30;85.80;;;;;;4944309;28;20381;-91
2022/07/11 00:57:35;;;;;;;0.10;0.10;;;16.20;86.10;;;;;;4944405;28;20022;-92
2022/07/11 01:00:01;;;;;;;0.10;0.10;;;16.20;86.80;;;;;;4944349;28;20030;-91
2022/07/11 01:02:27;;;;;;;0.10;0.10;;;16.30;86.30;;;;;;4943913;28;20496;-92
2022/07/11 01:04:53;;;;;;;0.10;0.10;;;16.30;87.00;;;;;;4944476;28;20027;-91
2022/07/11 01:07:20;;;;;;;0.10;0.10;;;16.50;86.70;;;;;;4943787;28;20126;-92
2022/07/11 01:09:47;;;;;;;0.10;0.10;;;16.50;85.30;;;;;;5040287;23;20037;-74
2022/07/11 01:12:12;;;;;;;0.10;0.10;;;16.40;82.50;;;;;;5033389;28;20044;-75
2022/07/11 01:14:38;;;;;;;0.10;0.10;;;16.40;82.90;;;;;;5033959;28;20030;-75
2022/07/11 01:17:04;;;;;;;0.10;0.10;;;16.70;83.10;;;;;;5017272;28;20032;-75
2022/07/11 01:19:30;;;;;;;0.10;0.10;;;16.90;81.70;;;;;;5017776;28;20030;-75
2022/07/11 01:22:00;;;;;;;0.13;0.13;;;16.90;80.50;;;;;;5036023;28;20481;-75
2022/07/11 01:24:26;;;;;;;0.10;0.10;;;16.90;80.70;;;;;;5033788;28;20033;-75
2022/07/11 01:26:52;;;;;;;0.10;0.10;;;16.90;80.40;;;;;;5017388;28;20033;-76
2022/07/11 01:29:18;;;;;;;0.10;0.10;;;16.90;81.30;;;;;;5034971;28;20518;-75
2022/07/11 01:31:44;;;;;;;0.10;0.10;;;17.00;81.20;;;;;;5017420;28;20021;-75
2022/07/11 01:34:11;;;;;;;0.10;0.10;;;17.10;82.30;;;;;;5035394;28;20017;-75
2022/07/11 01:36:37;;;;;;;0.10;0.10;;;17.30;81.20;;;;;;5034580;28;20413;-75
2022/07/11 01:39:03;;;;;;;0.10;0.10;;;17.40;80.50;;;;;;5029647;28;20029;-75
2022/07/11 01:41:29;;;;;;;0.10;0.10;;;17.40;80.80;;;;;;5016951;28;20473;-76
2022/07/11 01:43:55;;;;;;;0.10;0.10;;;17.40;80.80;;;;;;5034623;28;20071;-76
2022/07/11 01:46:21;;;;;;;0.10;0.10;;;17.30;81.80;;;;;;5034593;28;20067;-76
2022/07/11 01:48:47;;;;;;;0.10;0.10;;;17.40;82.50;;;;;;5016973;28;20021;-76
2022/07/11 01:51:13;;;;;;;0.10;0.10;;;17.40;81.30;;;;;;5033693;28;20033;-76
2022/07/11 01:53:39;;;;;;;0.10;0.10;;;17.60;81.50;;;;;;5032972;28;20045;-76
2022/07/11 01:56:05;;;;;;;0.20;0.20;;;17.30;80.70;;;;;;5034544;28;20103;-76
2022/07/11 02:00:59;;;;;;;0.10;0.10;;;16.90;81.60;;;;;;5047710;28;20041;-75
2022/07/11 02:03:25;;;;;;;0.10;0.10;;;16.70;83.10;;;;;;5036323;28;20472;-75
2022/07/11 02:05:51;;;;;;;0.10;0.10;;;16.70;83.50;;;;;;5036297;28;20024;-75
2022/07/11 02:08:17;;;;;;;0.15;0.15;;;16.80;83.20;;;;;;5035933;28;20087;-75
2022/07/11 02:10:51;;;;;;;0.10;0.10;;;16.80;83.60;;;;;;5019395;28;20032;-75
2022/07/11 02:13:19;;;;;;;0.10;0.10;;;16.80;84.70;;;;;;5035995;28;20108;-75
2022/07/11 02:15:46;;;;;;;0.10;0.10;;;16.90;84.30;;;;;;5036027;28;20032;-75
2022/07/11 02:18:13;;;;;;;0.10;0.10;;;16.60;84.30;;;;;;5035866;28;20027;-75
2022/07/11 02:20:40;;;;;;;0.10;0.10;;;16.80;85.00;;;;;;5053228;28;20033;-75
2022/07/11 02:23:06;;;;;;;0.10;0.10;;;16.70;84.60;;;;;;5019074;28;20021;-75
2022/07/11 02:25:34;;;;;;;0.10;0.10;;;16.60;84.80;;;;;;5035769;28;20605;-75
2022/07/11 02:28:01;;;;;;;0.10;0.10;;;16.40;84.80;;;;;;5053651;28;20048;-75
2022/07/11 02:30:27;;;;;;;0.10;0.10;;;16.30;85.20;;;;;;5018827;28;20025;-74
2022/07/11 02:32:53;;;;;;;0.10;0.10;;;16.20;85.70;;;;;;5053303;28;20036;-75
2022/07/11 02:35:19;;;;;;;0.20;0.20;;;16.40;85.50;;;;;;5035528;28;20049;-75
2022/07/11 02:37:45;;;;;;;0.10;0.10;;;16.30;85.20;;;;;;5018890;28;20548;-75
2022/07/11 02:40:11;;;;;;;0.10;0.10;;;16.20;85.30;;;;;;5035678;28;20096;-74
2022/07/11 02:42:37;;;;;;;0.10;0.10;;;16.30;85.90;;;;;;5053438;28;20155;-74
2022/07/11 02:45:04;;;;;;;0.00;0.00;;;16.40;85.80;;;;;;5053374;28;20075;-73
2022/07/11 02:47:30;;;;;;;0.10;0.10;;;16.30;85.20;;;;;;5053278;28;20021;-74
2022/07/11 02:49:55;;;;;;;0.00;0.00;;;16.40;85.60;;;;;;5053292;28;20374;-73
2022/07/11 02:52:21;;;;;;;0.10;0.10;;;16.50;85.00;;;;;;5035536;28;20115;-73
2022/07/11 02:54:47;;;;;;;0.10;0.10;;;16.40;83.80;;;;;;5053615;28;20110;-73
2022/07/11 02:57:13;;;;;;;0.08;0.08;;;16.40;84.20;;;;;;5053587;28;20021;-73
2022/07/11 02:59:39;;;;;;;0.08;0.08;;;16.50;83.40;;;;;;5053760;28;20559;-73
2022/07/11 03:02:04;;;;;;;0.10;0.10;;;16.60;83.50;;;;;;5053397;28;20033;-76
2022/07/11 03:04:33;;;;;;;0.10;0.10;;;16.60;83.50;;;;;;5036070;28;20017;-76
2022/07/11 03:06:59;;;;;;;0.10;0.10;;;16.40;83.90;;;;;;5053815;28;20036;-75
2022/07/11 03:09:26;;;;;;;0.10;0.10;;;16.40;85.20;;;;;;5053478;28;20419;-75
2022/07/11 03:11:52;;;;;;;0.10;0.10;;;16.40;84.80;;;;;;5053872;28;20061;-76
2022/07/11 03:14:18;;;;;;;0.10;0.10;;;16.30;85.00;;;;;;5035548;28;20480;-75
2022/07/11 03:16:44;;;;;;;0.20;0.20;;;16.40;85.40;;;;;;5052886;28;20102;-74
2022/07/11 03:19:09;;;;;;;0.10;0.10;;;16.50;86.30;;;;;;5052498;28;20025;-74
2022/07/11 03:21:35;;;;;;;0.10;0.10;;;16.60;84.60;;;;;;5052263;28;20074;-74
2022/07/11 03:24:01;;;;;;;0.10;0.10;;;16.60;85.00;;;;;;5052561;28;20017;-74
2022/07/11 03:26:27;;;;;;;0.10;0.10;;;16.60;85.60;;;;;;5052498;28;20032;-74
2022/07/11 03:28:52;;;;;;;0.10;0.10;;;16.70;84.70;;;;;;5034346;28;20025;-74
2022/07/11 03:31:18;;;;;;;0.13;0.13;;;16.70;85.40;;;;;;5052433;28;20021;-74
2022/07/11 03:33:44;;;;;;;0.20;0.20;;;16.40;86.70;;;;;;5052307;28;20036;-74
2022/07/11 03:36:10;;;;;;;0.10;0.10;;;16.30;87.80;;;;;;5052309;28;20033;-74
2022/07/11 03:38:37;;;;;;;0.10;0.10;;;16.40;87.80;;;;;;5052100;28;20507;-74
2022/07/11 03:41:04;;;;;;;0.10;0.10;;;16.50;87.80;;;;;;5051989;28;20021;-74
2022/07/11 03:43:30;;;;;;;0.10;0.10;;;16.40;87.30;;;;;;5052081;28;20072;-74
2022/07/11 03:45:56;;;;;;;0.08;0.08;;;16.40;87.20;;;;;;5052586;28;20017;-74
2022/07/11 03:48:22;;;;;;;0.10;0.10;;;16.50;85.80;;;;;;5052114;28;20439;-74
2022/07/11 03:50:48;;;;;;;0.35;0.35;;;16.40;86.00;;;;;;5051722;28;20376;-74
2022/07/11 03:53:14;;;;;;;0.10;0.10;;;16.40;85.30;;;;;;5051964;28;20464;-74
2022/07/11 03:55:40;;;;;;;0.10;0.10;;;16.40;85.40;;;;;;5052004;28;20468;-74
2022/07/11 03:58:06;;;;;;;0.20;0.20;;;16.40;84.50;;;;;;5051964;28;20032;-74
2022/07/11 04:00:32;;;;;;;0.20;0.20;;;16.40;84.40;;;;;;5051629;28;20048;-74
2022/07/11 04:02:58;;;;;;;0.10;0.10;;;16.60;89.00;;;;;;5051921;28;20323;-73
2022/07/11 04:05:24;;;;;;;0.00;0.00;;;16.70;90.80;;;;;;5051713;28;20044;-74
2022/07/11 04:07:50;;;;;;;0.10;0.10;;;16.60;90.40;;;;;;5034020;28;20025;-74
2022/07/11 04:10:17;;;;;;;0.05;0.05;;;16.60;90.40;;;;;;5033617;28;20020;-73
2022/07/11 04:12:43;;;;;;;0.10;0.10;;;16.40;91.30;;;;;;5051726;28;20121;-74
2022/07/11 04:15:10;;;;;;;0.47;0.47;;;16.30;91.70;;;;;;5051451;28;20031;-73
2022/07/11 04:17:37;;;;;;;0.10;0.10;;;16.30;91.80;;;;;;5033859;28;20028;-73
2022/07/11 04:20:03;;;;;;;0.10;0.10;;;16.40;91.90;;;;;;5051235;28;20487;-74
2022/07/11 04:22:29;;;;;;;0.10;0.10;;;16.40;91.60;;;;;;5033837;28;20025;-74
2022/07/11 04:24:55;;;;;;;0.10;0.10;;;16.30;91.90;;;;;;5051541;28;20017;-73
2022/07/11 04:27:21;;;;;;;0.60;0.38;;;16.40;92.10;;;;;;5051527;28;20472;-73
2022/07/11 04:29:47;;;;;;;0.10;0.10;;;16.40;91.80;;;;;;5051375;28;20048;-73
2022/07/11 04:32:12;;;;;;;0.10;0.10;;;16.60;92.10;;;;;;5033708;28;20029;-74
2022/07/11 04:34:38;;;;;;;0.00;0.00;;;16.50;92.10;;;;;;5051480;28;20438;-73
2022/07/11 04:37:04;;;;;;;0.10;0.10;;;16.30;92.40;;;;;;5033600;28;20029;-73
2022/07/11 04:39:32;;;;;;;0.10;0.10;;;16.30;92.10;;;;;;5051267;28;20380;-74
2022/07/11 04:41:59;;;;;;;0.10;0.10;;;16.10;92.00;;;;;;5051482;28;20032;-74
2022/07/11 04:47:00;;;;;;;0.10;0.10;;;16.30;92.20;;;;;;5003604;28;20081;-73
2022/07/11 04:49:26;;;;;;;0.10;0.10;;;16.30;92.00;;;;;;5019504;28;20044;-73
2022/07/11 04:51:51;;;;;;;0.10;0.10;;;16.30;92.20;;;;;;5030445;28;20033;-72
2022/07/11 04:54:17;;;;;;;0.10;0.10;;;16.20;92.60;;;;;;5031762;28;20032;-72
2022/07/11 04:56:43;;;;;;;0.10;0.10;;;16.20;91.50;;;;;;5031647;28;20397;-73
2022/07/11 04:59:09;;;;;;;0.10;0.10;;;16.30;92.20;;;;;;5031644;28;20083;-73
2022/07/11 05:01:35;;;;;;;0.13;0.13;;;16.40;93.00;;;;;;5031611;28;20064;-72
2022/07/11 05:04:01;;;;;;;0.10;0.10;;;16.40;93.90;;;;;;5031613;28;20056;-72
2022/07/11 05:06:27;;;;;;;0.20;0.20;;;16.30;93.90;;;;;;5030352;28;20419;-72
2022/07/11 05:08:54;;;;;;;0.10;0.10;;;16.50;93.70;;;;;;5031472;28;20052;-72
2022/07/11 05:11:20;;;;;;;0.10;0.10;;;16.50;92.70;;;;;;5031608;28;20125;-72
2022/07/11 05:13:46;;;;;;;0.10;0.10;;;16.40;92.80;;;;;;5031409;28;20047;-72
2022/07/11 05:16:12;;;;;;;0.10;0.10;;;16.40;92.60;;;;;;5031655;28;20393;-72
2022/07/11 05:18:38;;;;;;;0.28;0.28;;;16.40;92.60;;;;;;5031606;28;20060;-72
2022/07/11 05:21:05;;;;;;;0.10;0.10;;;16.70;91.60;;;;;;5013991;28;20044;-71
2022/07/11 05:23:31;;;;;;;0.10;0.10;;;16.60;92.30;;;;;;5013402;28;20032;-73
2022/07/11 05:25:56;;;;;;;0.10;0.10;;;16.60;92.70;;;;;;5031002;28;20468;-73
2022/07/11 05:28:22;;;;;;;0.10;0.10;;;16.50;93.00;;;;;;5034669;28;20552;-72
2022/07/11 05:30:48;;;;;;;0.10;0.10;;;16.30;93.50;;;;;;5034870;28;20017;-73
2022/07/11 05:33:14;;;;;;;1.25;0.52;;;16.30;93.20;;;;;;5034962;28;20167;-75
2022/07/11 05:35:40;;;;;;;0.10;0.10;;;16.40;93.00;;;;;;5014922;28;20034;-74
2022/07/11 05:38:05;;;;;;;0.10;0.10;;;16.30;93.00;;;;;;5014692;28;20075;-73
2022/07/11 05:40:31;;;;;;;0.10;0.10;;;16.40;93.40;;;;;;5014515;28;20022;-73
2022/07/11 05:42:57;;;;;;;0.13;0.13;;;16.50;93.10;;;;;;5030023;28;20030;-73
2022/07/11 05:45:23;;;;;;;0.10;0.10;;;16.70;92.90;;;;;;5013183;28;20034;-73
2022/07/11 05:47:48;;;;;;;0.10;0.10;;;16.70;93.30;;;;;;5014952;28;20026;-73
2022/07/11 05:50:14;;;;;;;0.10;0.10;;;16.70;91.80;;;;;;5014573;28;20027;-73
2022/07/11 05:52:40;;;;;;;0.10;0.10;;;16.90;90.10;;;;;;5014724;28;20030;-73
2022/07/11 05:55:06;;;;;;;0.10;0.10;;;16.90;90.30;;;;;;5015183;28;20030;-76
2022/07/11 05:57:32;;;;;;;0.10;0.10;;;17.20;89.80;;;;;;5014287;28;20037;-76
2022/07/11 05:59:58;;;;;;;0.10;0.10;;;17.30;87.20;;;;;;5014212;28;20162;-75
2022/07/11 06:02:23;;;;;;;0.10;0.10;;;17.30;87.50;;;;;;5014343;28;20029;-75
2022/07/11 06:04:49;;;;;;;0.10;0.10;;;17.20;88.80;;;;;;5007802;28;20026;-76
2022/07/11 06:08:40;;;;;;;0.10;0.10;;;17.00;88.70;;;;;;5013216;28;20022;-76
2022/07/11 06:10:01;;;;;;;0.10;0.10;;;17.10;88.50;;;;;;5013022;28;20560;-76
2022/07/11 06:12:26;;;;;;;0.10;0.10;;;17.10;86.80;;;;;;5010715;28;20065;-76
2022/07/11 06:14:52;;;;;;;0.10;0.10;;;17.00;86.50;;;;;;5010760;28;20390;-76
2022/07/11 06:17:18;;;;;;;0.10;0.10;;;17.00;88.10;;;;;;4993353;28;20023;-75
2022/07/11 06:19:43;;;;;;;0.10;0.10;;;17.00;86.90;;;;;;4997037;28;20034;-76
2022/07/11 06:22:09;;;;;;;0.13;0.13;;;17.30;85.10;;;;;;5007317;28;20048;-76
2022/07/11 06:24:35;;;;;;;0.10;0.10;;;17.20;88.90;;;;;;4998117;28;20041;-75
2022/07/11 06:27:00;;;;;;;0.63;0.55;;;17.50;88.10;;;;;;5013700;28;20026;-75
2022/07/11 06:29:27;;;;;;;0.10;0.10;;;17.20;81.50;;;;;;5013025;28;20046;-74
2022/07/11 06:31:52;;;;;;;0.10;0.10;;;17.40;80.60;;;;;;5013118;28;20026;-75
2022/07/11 06:34:19;;;;;;;0.32;0.32;;;17.70;80.80;;;;;;5012761;28;20037;-75
2022/07/11 06:36:44;;;;;;;0.10;0.10;;;17.70;87.00;;;;;;5013702;28;20100;-76
2022/07/11 06:39:10;;;;;;;0.10;0.10;;;17.70;85.90;;;;;;5011770;28;20026;-73
2022/07/11 06:41:36;;;;;;;0.20;0.20;;;17.90;85.70;;;;;;5007383;28;20389;-74
2022/07/11 06:44:02;;;;;;;0.10;0.10;;;17.70;86.20;;;;;;5012897;28;20109;-74
2022/07/11 06:46:28;;;;;;;0.10;0.10;;;17.70;86.10;;;;;;5012470;28;20038;-74
2022/07/11 06:48:54;;;;;;;0.20;0.20;;;17.80;84.70;;;;;;5004677;28;20671;-74
2022/07/11 06:51:21;;;;;;;0.20;0.20;;;17.80;83.70;;;;;;5005595;28;20097;-74
2022/07/11 06:53:47;;;;;;;0.35;0.35;;;18.00;83.20;;;;;;5013107;28;20029;-74
2022/07/11 06:56:16;;;;;;;0.20;0.20;;;17.80;83.30;;;;;;4994183;28;20385;-75
2022/07/11 06:58:42;;;;;;;0.10;0.10;;;18.00;79.60;;;;;;5011942;28;20021;-75
2022/07/11 07:01:08;;;;;;;0.10;0.10;;;18.10;79.10;;;;;;5011030;28;20030;-74
2022/07/11 07:03:34;;;;;;;0.08;0.08;;;18.20;77.50;;;;;;5012505;28;20037;-74
2022/07/11 07:06:01;;;;;;;0.10;0.10;;;18.30;76.90;;;;;;5006604;28;20022;-74
2022/07/11 07:10:59;;;;;;;;;;;18.10;77.50;;;;;;5031071;28;20047;-74
2022/07/11 07:13:25;;;;;;;0.10;0.10;;;18.30;76.70;;;;;;4996825;28;20268;-74
2022/07/11 07:15:53;;;;;;;0.10;0.10;;;18.40;77.30;;;;;;5020473;28;20504;-75
2022/07/11 07:18:19;;;;;;;0.10;0.10;;;18.40;76.30;;;;;;5032830;28;20029;-74
2022/07/11 07:20:44;;;;;;;0.10;0.10;;;18.30;76.40;;;;;;5032328;28;20035;-74
2022/07/11 07:23:10;;;;;;;0.10;0.10;;;18.30;75.80;;;;;;5013842;28;20116;-75
2022/07/11 07:25:37;;;;;;;0.10;0.10;;;18.40;75.70;;;;;;5029225;28;20079;-75
2022/07/11 07:28:04;;;;;;;0.20;0.20;;;18.60;74.50;;;;;;5011559;28;20029;-74
2022/07/11 07:30:29;;;;;;;0.10;0.10;;;18.70;73.20;;;;;;5009664;28;20116;-74
2022/07/11 07:32:55;;;;;;;0.03;0.03;;;18.60;73.90;;;;;;5020714;28;20053;-74
2022/07/11 07:35:21;;;;;;;0.10;0.10;;;18.40;75.00;;;;;;5019912;28;20154;-74
2022/07/11 07:37:47;;;;;;;0.10;0.10;;;18.50;74.50;;;;;;5021302;28;20056;-74
2022/07/11 07:40:12;;;;;;;0.10;0.10;;;18.90;74.00;;;;;;5012331;28;20057;-74
2022/07/11 07:42:38;;;;;;;0.10;0.10;;;19.20;73.70;;;;;;5020288;28;20479;-74
2022/07/11 07:45:04;;;;;;;0.10;0.10;;;19.40;72.60;;;;;;5020209;28;20125;-74
2022/07/11 07:47:30;;;;;;;0.10;0.10;;;19.60;72.30;;;;;;5011902;28;20039;-74
2022/07/11 07:49:56;;;;;;;0.10;0.10;;;19.80;72.20;;;;;;4994157;28;20049;-74
2022/07/11 07:52:22;;;;;;;0.05;0.05;;;20.00;71.80;;;;;;5010176;28;20041;-73
2022/07/11 07:54:47;;;;;;;0.10;0.10;;;20.20;70.00;;;;;;5022725;28;20029;-74
2022/07/11 07:57:13;;;;;;;0.25;0.20;;;20.50;69.90;;;;;;5023677;28;20065;-74
2022/07/11 07:59:39;;;;;;;0.20;0.20;;;20.40;68.20;;;;;;4996279;28;20040;-74
2022/07/11 08:02:05;;;;;;;0.10;0.10;;;20.10;66.60;;;;;;5013093;28;20392;-74
2022/07/11 08:04:31;;;;;;;0.10;0.10;;;19.60;69.10;;;;;;5014667;28;20072;-74
2022/07/11 08:06:59;;;;;;;0.15;0.15;;;19.70;69.20;;;;;;5023626;28;20424;-74
2022/07/11 08:09:24;;;;;;;0.10;0.10;;;19.60;69.70;;;;;;5013507;28;20484;-74
2022/07/11 08:11:50;;;;;;;0.20;0.20;;;19.80;69.50;;;;;;5023141;28;20063;-74
2022/07/11 08:14:16;;;;;;;0.10;0.10;;;19.80;69.10;;;;;;5013731;28;20034;-74
2022/07/11 08:16:42;;;;;;;0.10;0.10;;;19.70;69.70;;;;;;5023341;28;20025;-74
2022/07/11 08:19:09;;;;;;;0.10;0.10;;;19.60;69.50;;;;;;5012219;28;20064;-74
2022/07/11 08:21:35;;;;;;;0.10;0.10;;;19.60;69.90;;;;;;5022865;28;20022;-75
2022/07/11 08:24:02;;;;;;;0.10;0.10;;;19.60;70.50;;;;;;5023260;28;20038;-74
2022/07/11 08:26:28;;;;;;;0.00;0.00;;;19.60;69.10;;;;;;5023948;28;20033;-73
2022/07/11 08:28:54;;;;;;;0.50;0.50;;;19.50;70.80;;;;;;5026231;28;20103;-73
2022/07/11 08:31:19;;;;;;;0.10;0.10;;;19.20;71.60;;;;;;5024152;28;20112;-74
2022/07/11 08:33:46;;;;;;;0.10;0.10;;;19.30;71.90;;;;;;5012807;28;20033;-74
2022/07/11 08:36:12;;;;;;;0.10;0.10;;;19.30;71.60;;;;;;5013963;28;20030;-74
2022/07/11 08:38:39;;;;;;;0.00;0.00;;;19.70;71.50;;;;;;5013703;28;20433;-74
2022/07/11 08:41:05;;;;;;;0.10;0.10;;;19.80;70.60;;;;;;5023566;28;20030;-74
2022/07/11 08:43:31;;;;;;;0.30;0.30;;;19.70;70.20;;;;;;4996436;28;20033;-74
2022/07/11 08:45:58;;;;;;;0.00;0.00;;;19.60;70.70;;;;;;5012779;28;20120;-73
2022/07/11 08:48:24;;;;;;;0.10;0.10;;;19.80;70.30;;;;;;5022640;28;20029;-74
2022/07/11 08:50:50;;;;;;;0.00;0.00;;;19.70;69.80;;;;;;5014283;28;20029;-74
2022/07/11 08:53:16;;;;;;;0.05;0.05;;;19.70;70.20;;;;;;5022752;28;20052;-73
2022/07/11 08:55:43;;;;;;;0.10;0.10;;;19.90;70.40;;;;;;5013015;28;20025;-74
2022/07/11 08:58:09;;;;;;;0.10;0.10;;;20.00;69.00;;;;;;5023171;28;20030;-74
2022/07/11 09:00:36;;;;;;;0.10;0.10;;;20.00;69.10;;;;;;5024048;28;20022;-74
2022/07/11 09:03:03;;;;;;;0.10;0.10;;;20.10;68.20;;;;;;5027134;28;20053;-74
2022/07/11 09:05:31;;;;;;;0.15;0.15;;;20.00;68.40;;;;;;5018247;28;20025;-73
2022/07/11 09:07:56;;;;;;;0.10;0.10;;;20.10;68.80;;;;;;5026314;28;20033;-74
2022/07/11 09:10:22;;;;;;;0.00;0.00;;;20.40;68.30;;;;;;5018356;28;20552;-75
2022/07/11 09:12:59;;;;;;;0.10;0.10;;;21.20;66.90;;;;;;5018052;28;20124;-75
2022/07/11 09:15:40;;;;;;;0.10;0.10;;;21.70;65.20;;;;;;5017080;28;20072;-74
2022/07/11 09:18:32;;;;;;;0.25;0.25;;;22.20;62.90;;;;;;5016897;28;20440;-74
2022/07/11 09:26:36;;;;;;;0.10;0.10;;;22.00;64.20;;;;;;5027152;28;20037;-74
2022/07/11 09:29:08;;;;;;;0.00;0.00;;;21.70;63.00;;;;;;5018832;28;20496;-74
2022/07/11 09:31:35;;;;;;;;;;;21.50;64.10;;;;;;5027378;28;20084;-74
2022/07/11 09:34:02;;;;;;;0.00;0.00;;;21.80;64.00;;;;;;5016249;28;19909;-74
2022/07/11 09:36:48;;;;;;;0.50;0.50;;;22.40;63.40;;;;;;5026857;28;20116;-74
2022/07/11 09:39:16;;;;;;;0.00;0.00;;;22.90;61.10;;;;;;5026329;28;20060;-74
2022/07/11 09:41:42;;;;;;;0.10;0.10;;;23.00;59.40;;;;;;5015976;28;20523;-74
2022/07/11 09:44:09;;;;;;;1.20;0.20;;;22.60;59.60;;;;;;5017510;28;20456;-74
2022/07/11 09:46:36;;;;;;;0.00;0.00;;;22.20;61.70;;;;;;5026427;28;20025;-74
2022/07/11 09:49:02;;;;;;;0.10;0.10;;;22.30;61.90;;;;;;5017747;28;20032;-74
2022/07/11 09:51:29;;;;;;;0.10;0.10;;;22.20;61.30;;;;;;5015685;28;20072;-74
2022/07/11 09:53:57;;;;;;;0.00;0.00;;;21.90;62.50;;;;;;5025803;28;20033;-74
2022/07/11 09:56:43;;;;;;;0.65;0.65;;;21.80;63.40;;;;;;5017243;28;20042;-74
2022/07/11 09:59:13;;;;;;;0.10;0.10;;;22.20;63.10;;;;;;5026290;28;20469;-74
2022/07/11 10:01:39;;;;;;;0.00;0.00;;;21.90;62.70;;;;;;5016443;28;20033;-73
2022/07/11 10:04:07;;;;;;;0.10;0.10;;;22.00;63.30;;;;;;5015662;28;20037;-74
2022/07/11 10:06:33;;;;;;;0.03;0.03;;;22.30;60.80;;;;;;5016314;28;20034;-74
2022/07/11 10:08:59;;;;;;;0.00;0.00;;;22.10;62.30;;;;;;5025286;28;20025;-73
2022/07/11 10:11:25;;;;;;;0.13;0.13;;;22.70;62.40;;;;;;5025297;28;20362;-77
2022/07/11 10:13:51;;;;;;;0.00;0.00;;;23.50;59.40;;;;;;4999555;28;20034;-76
2022/07/11 10:16:25;;;;;;;0.00;0.00;;;23.30;58.50;;;;;;5022386;28;20115;-77
2022/07/11 10:19:03;;;;;;;0.00;0.00;;;23.40;58.80;;;;;;5022919;28;20039;-77
2022/07/11 10:21:40;;;;;;;0.00;0.00;;;23.70;58.30;;;;;;4996968;28;20029;-72
2022/07/11 10:24:35;;;;;;;0.10;0.10;;;23.60;57.10;;;;;;5022673;28;20078;-71
2022/07/11 10:27:09;;;;;;;0.10;0.10;;;23.30;58.20;;;;;;5013771;28;20036;-71
2022/07/11 10:29:51;;;;;;;0.00;0.00;;;23.10;59.60;;;;;;5026467;28;20485;-73
2022/07/11 10:32:19;;;;;;;0.00;0.00;;;22.80;60.00;;;;;;5023324;28;20067;-72
2022/07/11 10:34:47;;;;;;;0.03;0.03;;;22.50;61.50;;;;;;5028218;28;20030;-72
2022/07/11 10:37:13;;;;;;;0.00;0.00;;;22.60;61.00;;;;;;5026071;28;20091;-72
2022/07/11 10:39:56;;;;;;;0.00;0.00;;;22.60;60.30;;;;;;5019619;28;20049;-72
2022/07/11 10:42:22;;;;;;;0.55;0.55;;;22.40;60.10;;;;;;5028392;28;20034;-71
2022/07/11 10:44:51;;;;;;;0.15;0.15;;;23.40;59.50;;;;;;5027968;28;20038;-72
2022/07/11 10:47:42;;;;;;;0.03;0.03;;;23.30;57.60;;;;;;5027990;28;20029;-71
2022/07/11 10:50:26;;;;;;;0.00;0.00;;;23.10;58.90;;;;;;5027678;28;20030;-71
2022/07/11 10:52:56;;;;;;;0.00;0.00;;;22.90;58.90;;;;;;5028490;28;20048;-71
2022/07/11 10:55:33;;;;;;;0.15;0.15;;;22.80;59.60;;;;;;5019295;28;20031;-71
2022/07/11 10:58:16;;;;;;;0.00;0.00;;;22.60;58.80;;;;;;5028775;28;20041;-71
2022/07/11 11:00:41;;;;;;;0.10;0.10;;;22.20;59.50;;;;;;5029864;28;20366;-71
2022/07/11 11:03:10;;;;;;;0.03;0.03;;;22.40;61.70;;;;;;5028851;28;20183;-72
2022/07/11 11:05:52;;;;;;;0.40;0.10;;;22.60;61.50;;;;;;5029336;28;20036;-71
2022/07/11 11:08:35;;;;;;;0.10;0.10;;;22.30;62.10;;;;;;5027351;28;20064;-71
2022/07/11 11:11:21;;;;;;;0.08;0.08;;;22.30;62.50;;;;;;5009438;28;20509;-71
2022/07/11 11:14:20;;;;;;;0.00;0.00;;;22.50;61.80;;;;;;5017302;28;20108;-71
2022/07/11 11:16:47;;;;;;;0.17;0.17;;;22.60;62.30;;;;;;5029084;28;20033;-71
2022/07/11 11:19:47;;;;;;;0.00;0.00;;;22.50;61.40;;;;;;5026949;28;20057;-71
2022/07/11 11:22:14;;;;;;;0.10;0.10;;;22.30;61.00;;;;;;5028737;28;20517;-72
2022/07/11 11:24:43;;;;;;;0.00;0.00;;;22.10;61.90;;;;;;5028189;28;20017;-73
2022/07/11 11:27:21;;;;;;;0.10;0.10;;;22.20;62.30;;;;;;5028785;28;20036;-71
2022/07/11 11:29:53;;;;;;;0.05;0.05;;;22.20;61.20;;;;;;5028805;28;20032;-72
2022/07/11 11:32:20;;;;;;;0.10;0.10;;;22.20;62.80;;;;;;5028979;28;20508;-72
2022/07/11 11:34:47;;;;;;;0.38;0.10;;;22.60;63.50;;;;;;5028246;28;20060;-72
2022/07/11 11:37:16;;;;;;;0.00;0.00;;;22.60;61.90;;;;;;5029221;28;20114;-71
2022/07/11 11:39:41;;;;;;;0.00;0.00;;;22.30;61.90;;;;;;5025896;28;20034;-72
2022/07/11 11:42:11;;;;;;;0.10;0.10;;;22.30;61.80;;;;;;5023557;28;20035;-75
2022/07/11 11:44:51;;;;;;;0.00;0.00;;;22.20;63.50;;;;;;5026703;28;20034;-72
2022/07/11 11:47:17;;;;;;;0.17;0.17;;;22.60;63.90;;;;;;5025291;28;20108;-73
2022/07/11 11:49:44;;;;;;;0.20;0.10;;;22.90;62.20;;;;;;5026652;28;20096;-73
2022/07/11 11:52:10;;;;;;;0.55;0.32;;;23.20;61.30;;;;;;5015955;28;20056;-72
2022/07/11 11:54:39;;;;;;;0.00;0.00;;;22.90;61.30;;;;;;5020816;28;20037;-73
2022/07/11 11:57:12;;;;;;;0.15;0.15;;;23.00;62.50;;;;;;5028573;28;20472;-72
2022/07/11 11:59:40;;;;;;;0.03;0.03;;;23.00;60.30;;;;;;5024870;28;20033;-72
2022/07/11 12:02:06;;;;;;;0.00;0.00;;;23.10;60.70;;;;;;5028315;28;20086;-72
2022/07/11 12:04:34;;;;;;;0.10;0.10;;;23.50;59.80;;;;;;5027931;28;20021;-72
2022/07/11 12:07:01;;;;;;;0.00;0.00;;;23.70;59.00;;;;;;5027845;28;20485;-72
2022/07/11 12:09:46;;;;;;;0.00;0.00;;;23.50;59.20;;;;;;5020699;28;20029;-72
2022/07/11 12:15:01;;;;;;;0.10;0.10;;;22.70;61.80;;;;;;5013443;28;20029;-72
2022/07/11 12:17:29;;;;;;;0.10;0.10;;;22.60;61.60;;;;;;5011140;28;20033;-74
2022/07/11 12:19:55;;;;;;;0.00;0.00;;;22.80;62.10;;;;;;5026503;28;20473;-73
2022/07/11 12:22:21;;;;;;;0.38;0.38;;;23.10;61.40;;;;;;5027536;28;20037;-72
2022/07/11 12:24:49;;;;;;;0.05;0.05;;;23.30;59.60;;;;;;5027714;28;20029;-73
2022/07/11 12:27:20;;;;;;;0.15;0.15;;;23.30;60.20;;;;;;5014480;28;20029;-72
2022/07/11 12:29:50;;;;;;;0.00;0.00;;;23.40;59.30;;;;;;5025459;28;20025;-72
2022/07/11 12:32:17;;;;;;;0.00;0.00;;;23.50;59.20;;;;;;5025129;28;20044;-71
2022/07/11 12:34:45;;;;;;;0.00;0.00;;;23.30;59.60;;;;;;5023876;28;20064;-71
2022/07/11 12:37:15;;;;;;;0.10;0.10;;;23.10;59.80;;;;;;5029744;28;20033;-72
2022/07/11 12:39:59;;;;;;;0.10;0.10;;;22.80;60.30;;;;;;5031894;28;20033;-72
2022/07/11 12:42:26;;;;;;;0.00;0.00;;;22.70;60.60;;;;;;5032028;28;20052;-72
2022/07/11 12:45:09;;;;;;;0.00;0.00;;;22.90;60.70;;;;;;5031883;28;20060;-72
2022/07/11 12:47:40;;;;;;;0.35;0.13;;;22.90;60.90;;;;;;5032030;28;20025;-72
2022/07/11 12:50:21;;;;;;;0.00;0.00;;;22.90;61.00;;;;;;5031739;28;20108;-72
2022/07/11 12:52:52;;;;;;;0.00;0.00;;;23.00;60.80;;;;;;5026638;28;20037;-72
2022/07/11 12:55:26;;;;;;;0.10;0.10;;;22.90;60.60;;;;;;5031807;28;20489;-72
2022/07/11 12:58:17;;;;;;;0.00;0.00;;;22.80;60.60;;;;;;5026302;28;20124;-71
2022/07/11 13:01:03;;;;;;;0.00;0.00;;;22.50;60.60;;;;;;5029344;28;20071;-72
2022/07/11 13:03:36;;;;;;;0.00;0.00;;;22.70;61.20;;;;;;5019176;28;20253;-72
2022/07/11 13:06:02;;;;;;;0.00;0.00;;;22.90;60.70;;;;;;5031447;28;20033;-72
2022/07/11 13:08:46;;;;;;;0.00;0.00;;;23.30;60.10;;;;;;5029780;28;20029;-72